Time,TemperatureF,DewpointF,PressureIn,WindDirection,WindDirectionDegrees,WindSpeedMPH,WindSpeedGustMPH,Humidity,HourlyPrecipIn,Conditions,Clouds,dailyrainin,SoftwareType,DateUTC
2013-01-29 01:32:00,17.0,14.0,-100.00,SW,235,6.0,8.0,88,-99.99,,,-99.99,,2013-01-29 08:32:00,
2013-01-29 01:42:00,17.0,14.0,-100.00,SW,235,6.0,8.0,88,-99.99,,,-99.99,,2013-01-29 08:42:00,
2013-01-29 01:52:00,17.0,14.0,-100.00,SW,235,6.0,8.0,88,-99.99,,,-99.99,,2013-01-29 08:52:00,
2013-01-29 02:01:00,17.0,14.0,-100.00,SW,235,6.0,8.0,88,-99.99,,,-99.99,,2013-01-29 09:01:00,
2013-01-29 02:11:00,17.0,14.0,-100.00,WSW,245,6.0,7.0,90,-99.99,,,-99.99,,2013-01-29 09:11:00,
2013-01-29 02:21:00,17.0,14.0,-100.00,WSW,245,6.0,7.0,90,-99.99,,,-99.99,,2013-01-29 09:21:00,
2013-01-29 02:31:00,17.0,14.0,-100.00,WSW,240,7.0,9.0,89,-99.99,,,0.00,,2013-01-29 09:31:00,
2013-01-29 02:42:00,17.0,14.0,-100.00,WSW,240,7.0,9.0,89,-99.99,,,0.00,,2013-01-29 09:42:00,
2013-01-29 02:52:00,17.0,14.0,-100.00,WSW,240,7.0,9.0,89,-99.99,,,0.00,,2013-01-29 09:52:00,
2013-01-29 03:01:00,17.0,14.0,-100.00,WSW,240,7.0,9.0,89,-99.99,,,0.00,,2013-01-29 10:01:00,
2013-01-29 03:11:00,17.0,14.0,-100.00,NW,305,7.0,12.0,90,-99.99,,,0.00,,2013-01-29 10:11:00,
2013-01-29 03:21:00,17.0,14.0,-100.00,NW,305,7.0,12.0,90,-99.99,,,0.00,,2013-01-29 10:21:00,
2013-01-29 03:32:00,17.0,14.0,-100.00,NW,305,7.0,12.0,90,-99.99,,,0.00,,2013-01-29 10:32:00,
2013-01-29 04:11:00,15.0,13.0,-100.00,NW,325,1.0,4.0,90,-99.99,,,0.00,,2013-01-29 11:11:00,
2013-01-29 04:21:00,15.0,13.0,-100.00,NW,325,1.0,4.0,90,-99.99,,,0.00,,2013-01-29 11:21:00,
2013-01-29 04:31:00,15.0,13.0,-100.00,NW,325,1.0,4.0,90,-99.99,,,0.00,,2013-01-29 11:31:00,
2013-01-29 05:12:00,16.0,14.0,-100.00,WNW,285,3.0,4.0,90,-99.99,,,-99.99,,2013-01-29 12:12:00,
2013-01-29 05:22:00,16.0,14.0,-100.00,WNW,285,3.0,4.0,90,-99.99,,,-99.99,,2013-01-29 12:22:00,
2013-01-29 05:32:00,16.0,14.0,-100.00,WNW,300,3.0,4.0,90,-99.99,,,0.00,,2013-01-29 12:32:00,
2013-01-29 05:43:00,16.0,14.0,-100.00,WNW,300,3.0,4.0,90,-99.99,,,0.00,,2013-01-29 12:43:00,
2013-01-29 05:52:00,16.0,14.0,-100.00,WNW,300,3.0,4.0,90,-99.99,,,0.00,,2013-01-29 12:52:00,
2013-01-29 06:01:00,16.0,14.0,-100.00,WNW,300,3.0,4.0,90,-99.99,,,0.00,,2013-01-29 13:01:00,
2013-01-29 06:11:00,16.0,13.0,-100.00,WNW,300,2.0,3.0,90,-99.99,,,0.00,,2013-01-29 13:11:00,
2013-01-29 06:22:00,16.0,13.0,-100.00,WNW,300,2.0,3.0,90,-99.99,,,0.00,,2013-01-29 13:22:00,
2013-01-29 07:01:00,15.0,13.0,-100.00,SSW,195,2.0,3.0,90,-99.99,,,0.00,,2013-01-29 14:01:00,
2013-01-29 07:12:00,15.0,13.0,-100.00,SW,220,1.0,1.0,90,-99.99,,,0.00,,2013-01-29 14:12:00,
2013-01-29 07:21:00,15.0,13.0,-100.00,SW,220,1.0,1.0,90,-99.99,,,0.00,,2013-01-29 14:21:00,
2013-01-29 07:32:00,15.0,13.0,-100.00,SSW,195,2.0,3.0,90,-99.99,,,0.00,,2013-01-29 14:32:00,
2013-01-29 07:43:00,15.0,13.0,-100.00,SSW,195,2.0,3.0,90,-99.99,,,0.00,,2013-01-29 14:43:00,
2013-01-29 07:52:00,15.0,13.0,-100.00,SSW,195,2.0,3.0,90,-99.99,,,0.00,,2013-01-29 14:52:00,
2013-01-29 08:01:00,16.0,13.0,-100.00,West,265,3.0,4.0,90,-99.99,,,0.00,,2013-01-29 15:01:00,
2013-01-29 08:12:00,15.0,13.0,-100.00,NW,305,2.0,3.0,90,-99.99,,,0.00,,2013-01-29 15:12:00,
2013-01-29 08:22:00,15.0,13.0,-100.00,NW,305,2.0,3.0,90,-99.99,,,0.00,,2013-01-29 15:22:00,
2013-01-29 08:33:00,16.0,13.0,-100.00,West,265,3.0,4.0,90,-99.99,,,0.00,,2013-01-29 15:33:00,
2013-01-29 08:42:00,16.0,13.0,-100.00,West,265,3.0,4.0,90,-99.99,,,0.00,,2013-01-29 15:42:00,
2013-01-29 08:52:00,16.0,13.0,-100.00,West,265,3.0,4.0,90,-99.99,,,0.00,,2013-01-29 15:52:00,
2013-01-29 09:01:00,16.0,14.0,-100.00,WNW,295,1.0,3.0,90,-99.99,,,0.00,,2013-01-29 16:01:00,
2013-01-29 09:12:00,16.0,13.0,-100.00,WNW,300,5.0,6.0,90,-99.99,,,0.00,,2013-01-29 16:12:00,
2013-01-29 09:22:00,16.0,13.0,-100.00,WNW,300,5.0,6.0,90,-99.99,,,0.00,,2013-01-29 16:22:00,
2013-01-29 09:32:00,16.0,14.0,-100.00,WNW,295,1.0,3.0,90,-99.99,,,0.00,,2013-01-29 16:32:00,
2013-01-29 09:42:00,16.0,14.0,-100.00,WNW,295,1.0,3.0,90,-99.99,,,0.00,,2013-01-29 16:42:00,
2013-01-29 09:52:00,16.0,14.0,-100.00,WNW,295,1.0,3.0,90,-99.99,,,0.00,,2013-01-29 16:52:00,
2013-01-29 10:01:00,16.0,13.0,-100.00,South,190,3.0,6.0,88,-99.99,,,0.00,,2013-01-29 17:01:00,
2013-01-29 10:12:00,18.0,15.0,-100.00,WSW,240,1.0,3.0,89,-99.99,,,0.00,,2013-01-29 17:12:00,
2013-01-29 10:21:00,18.0,15.0,-100.00,WSW,240,1.0,3.0,89,-99.99,,,0.00,,2013-01-29 17:21:00,
2013-01-29 10:32:00,16.0,13.0,-100.00,South,190,3.0,6.0,88,-99.99,,,0.00,,2013-01-29 17:32:00,
2013-01-29 10:42:00,16.0,13.0,-100.00,South,190,3.0,6.0,88,-99.99,,,0.00,,2013-01-29 17:42:00,
2013-01-29 10:52:00,16.0,13.0,-100.00,South,190,3.0,6.0,88,-99.99,,,0.00,,2013-01-29 17:52:00,
2013-01-29 11:01:00,18.0,14.0,-100.00,West,280,6.0,7.0,83,-99.99,,,0.00,,2013-01-29 18:01:00,
2013-01-29 11:31:00,20.0,15.0,-100.00,SW,220,2.0,3.0,81,-99.99,,,0.00,,2013-01-29 18:31:00,
2013-01-29 11:33:00,18.0,14.0,-100.00,West,280,6.0,7.0,83,-99.99,,,0.00,,2013-01-29 18:33:00,
2013-01-29 11:42:00,18.0,14.0,-100.00,West,280,6.0,7.0,83,-99.99,,,0.00,,2013-01-29 18:42:00,
2013-01-29 11:51:00,18.0,14.0,-100.00,West,280,6.0,7.0,83,-99.99,,,0.00,,2013-01-29 18:51:00,
2013-01-29 12:12:00,20.0,15.0,-100.00,SW,220,2.0,3.0,81,-99.99,,,0.00,,2013-01-29 19:12:00,
2013-01-29 12:22:00,20.0,15.0,-100.00,SW,220,2.0,3.0,81,-99.99,,,0.00,,2013-01-29 19:22:00,
2013-01-29 13:01:00,20.0,14.0,-100.00,NW,310,4.0,6.0,79,-99.99,,,0.00,,2013-01-29 20:01:00,
2013-01-29 13:12:00,20.0,15.0,-100.00,West,260,5.0,6.0,79,-99.99,,,0.00,,2013-01-29 20:12:00,
2013-01-29 13:22:00,20.0,15.0,-100.00,West,260,5.0,6.0,79,-99.99,,,0.00,,2013-01-29 20:22:00,
2013-01-29 13:33:00,20.0,14.0,-100.00,NW,310,4.0,6.0,79,-99.99,,,0.00,,2013-01-29 20:33:00,
2013-01-29 13:42:00,20.0,14.0,-100.00,NW,310,4.0,6.0,79,-99.99,,,0.00,,2013-01-29 20:42:00,
2013-01-29 13:53:00,20.0,14.0,-100.00,NW,310,4.0,6.0,79,-99.99,,,0.00,,2013-01-29 20:53:00,
2013-01-29 14:00:00,19.0,14.0,-100.00,West,270,3.0,6.0,81,-99.99,,,0.00,,2013-01-29 21:00:00,
2013-01-29 14:12:00,18.0,15.0,-100.00,West,270,1.0,3.0,85,-99.99,,,0.00,,2013-01-29 21:12:00,
2013-01-29 14:22:00,18.0,15.0,-100.00,West,270,1.0,3.0,85,-99.99,,,0.00,,2013-01-29 21:22:00,
2013-01-29 14:33:00,19.0,14.0,-100.00,West,270,3.0,6.0,81,-99.99,,,0.00,,2013-01-29 21:33:00,
2013-01-29 14:42:00,19.0,14.0,-100.00,West,270,3.0,6.0,81,-99.99,,,0.00,,2013-01-29 21:42:00,
2013-01-29 14:52:00,19.0,14.0,-100.00,West,270,3.0,6.0,81,-99.99,,,0.00,,2013-01-29 21:52:00,
2013-01-29 15:01:00,19.0,14.0,-100.00,NW,305,4.0,6.0,81,-99.99,,,0.00,,2013-01-29 22:01:00,
2013-01-29 15:12:00,20.0,13.0,-100.00,WSW,250,3.0,6.0,75,-99.99,,,0.00,,2013-01-29 22:12:00,
2013-01-29 15:21:00,20.0,13.0,-100.00,WSW,250,3.0,6.0,75,-99.99,,,0.00,,2013-01-29 22:21:00,
2013-01-29 15:33:00,19.0,14.0,-100.00,NW,305,4.0,6.0,81,-99.99,,,0.00,,2013-01-29 22:33:00,
2013-01-29 15:42:00,19.0,14.0,-100.00,NW,305,4.0,6.0,81,-99.99,,,0.00,,2013-01-29 22:42:00,
2013-01-29 15:52:00,19.0,14.0,-100.00,NW,305,4.0,6.0,81,-99.99,,,0.00,,2013-01-29 22:52:00,
2013-01-29 16:00:00,18.0,14.0,-100.00,West,260,6.0,8.0,82,-99.99,,,0.00,,2013-01-29 23:00:00,
2013-01-29 16:12:00,19.0,14.0,-100.00,WNW,300,6.0,8.0,81,-99.99,,,0.00,,2013-01-29 23:12:00,
2013-01-29 16:22:00,19.0,14.0,-100.00,WNW,300,6.0,8.0,81,-99.99,,,0.00,,2013-01-29 23:22:00,
2013-01-29 16:32:00,18.0,14.0,-100.00,West,260,6.0,8.0,82,-99.99,,,0.00,,2013-01-29 23:32:00,
2013-01-29 16:42:00,18.0,14.0,-100.00,West,260,6.0,8.0,82,-99.99,,,0.00,,2013-01-29 23:42:00,
2013-01-29 16:52:00,18.0,14.0,-100.00,West,260,6.0,8.0,82,-99.99,,,0.00,,2013-01-29 23:52:00,
2013-01-29 17:01:00,16.0,12.0,-100.00,WSW,240,5.0,8.0,84,-99.99,,,0.00,,2013-01-30 00:01:00,
2013-01-29 17:11:00,16.0,13.0,-100.00,WNW,285,4.0,6.0,84,-99.99,,,0.00,,2013-01-30 00:11:00,
2013-01-29 17:22:00,16.0,13.0,-100.00,WNW,285,4.0,6.0,84,-99.99,,,0.00,,2013-01-30 00:22:00,
2013-01-29 17:32:00,16.0,12.0,-100.00,WSW,240,5.0,8.0,84,-99.99,,,0.00,,2013-01-30 00:32:00,
2013-01-29 17:42:00,16.0,12.0,-100.00,WSW,240,5.0,8.0,84,-99.99,,,0.00,,2013-01-30 00:42:00,
2013-01-29 17:52:00,16.0,12.0,-100.00,WSW,240,5.0,8.0,84,-99.99,,,0.00,,2013-01-30 00:52:00,
2013-01-29 18:32:00,14.0,10.0,-100.00,WSW,240,7.0,9.0,87,-99.99,,,0.00,,2013-01-30 01:32:00,
2013-01-29 18:43:00,14.0,10.0,-100.00,WSW,240,7.0,9.0,87,-99.99,,,0.00,,2013-01-30 01:43:00,
2013-01-29 18:52:00,14.0,10.0,-100.00,WSW,240,7.0,9.0,87,-99.99,,,0.00,,2013-01-30 01:52:00,
2013-01-29 19:02:00,14.0,10.0,-100.00,WSW,240,7.0,9.0,87,-99.99,,,0.00,,2013-01-30 02:02:00,
2013-01-29 19:12:00,16.0,14.0,-100.00,SW,235,11.0,12.0,88,-99.99,,,0.00,,2013-01-30 02:12:00,
2013-01-29 19:21:00,16.0,14.0,-100.00,SW,235,11.0,12.0,88,-99.99,,,0.00,,2013-01-30 02:21:00,
2013-01-29 19:33:00,17.0,14.0,-100.00,WSW,240,9.0,13.0,86,-99.99,,,0.00,,2013-01-30 02:33:00,
2013-01-29 19:42:00,17.0,14.0,-100.00,WSW,240,9.0,13.0,86,-99.99,,,0.00,,2013-01-30 02:42:00,
2013-01-29 19:52:00,17.0,14.0,-100.00,WSW,240,9.0,13.0,86,-99.99,,,0.00,,2013-01-30 02:52:00,
2013-01-29 20:11:00,18.0,12.0,-100.00,SW,230,13.0,16.0,79,-99.99,,,0.00,,2013-01-30 03:11:00,
2013-01-29 20:22:00,18.0,12.0,-100.00,SW,230,13.0,16.0,79,-99.99,,,0.00,,2013-01-30 03:22:00,
2013-01-29 20:32:00,18.0,11.0,-100.00,SW,235,12.0,16.0,75,-99.99,,,0.00,,2013-01-30 03:32:00,
2013-01-29 20:42:00,18.0,11.0,-100.00,SW,235,12.0,16.0,75,-99.99,,,0.00,,2013-01-30 03:42:00,
2013-01-29 20:51:00,18.0,11.0,-100.00,SW,235,12.0,16.0,75,-99.99,,,0.00,,2013-01-30 03:51:00,
2013-01-29 21:02:00,18.0,11.0,-100.00,SW,235,12.0,16.0,75,-99.99,,,0.00,,2013-01-30 04:02:00,
2013-01-29 21:11:00,18.0,12.0,-100.00,SW,220,14.0,16.0,78,-99.99,,,0.00,,2013-01-30 04:11:00,
2013-01-29 21:22:00,18.0,12.0,-100.00,SW,220,14.0,16.0,78,-99.99,,,0.00,,2013-01-30 04:22:00,
2013-01-29 21:32:00,18.0,14.0,-100.00,SW,225,10.0,15.0,85,-99.99,,,0.00,,2013-01-30 04:32:00,
2013-01-29 21:42:00,18.0,14.0,-100.00,SW,225,10.0,15.0,85,-99.99,,,0.00,,2013-01-30 04:42:00,
2013-01-29 21:52:00,18.0,14.0,-100.00,SW,225,10.0,15.0,85,-99.99,,,0.00,,2013-01-30 04:52:00,
2013-01-29 22:32:00,19.0,15.0,-100.00,SW,230,7.0,9.0,85,-99.99,,,0.00,,2013-01-30 05:32:00,
2013-01-29 22:43:00,19.0,15.0,-100.00,SW,230,7.0,9.0,85,-99.99,,,0.00,,2013-01-30 05:43:00,
2013-01-29 22:52:00,19.0,15.0,-100.00,SW,230,7.0,9.0,85,-99.99,,,0.00,,2013-01-30 05:52:00,
2013-01-29 23:01:00,20.0,15.0,-100.00,SW,215,6.0,8.0,82,-99.99,,,0.00,,2013-01-30 06:01:00,
2013-01-29 23:02:00,19.0,15.0,-100.00,SW,230,7.0,9.0,85,-99.99,,,0.00,,2013-01-30 06:02:00,
2013-01-29 23:11:00,19.0,15.0,-100.00,SW,220,8.0,11.0,84,-99.99,,,0.00,,2013-01-30 06:11:00,
2013-01-29 23:21:00,19.0,15.0,-100.00,SW,220,8.0,11.0,84,-99.99,,,0.00,,2013-01-30 06:21:00,
2013-01-29 23:31:00,20.0,15.0,-100.00,SW,215,6.0,8.0,82,-99.99,,,0.00,,2013-01-30 06:31:00,
2013-01-29 23:41:00,20.0,15.0,-100.00,SW,215,6.0,8.0,82,-99.99,,,0.00,,2013-01-30 06:41:00,
2013-01-29 23:51:00,20.0,15.0,-100.00,SW,215,6.0,8.0,82,-99.99,,,0.00,,2013-01-30 06:51:00,